createdAt,value
2023-04-22T00:03:47.381Z,23.70
2023-04-22T00:08:49.741Z,23.60
2023-04-22T00:13:51.732Z,23.70
2023-04-22T00:18:53.739Z,23.80
2023-04-22T00:23:55.820Z,23.80
2023-04-22T00:28:57.806Z,23.90
2023-04-22T00:33:59.816Z,23.90
2023-04-22T00:39:01.831Z,24.20
2023-04-22T00:44:04.253Z,24.20
2023-04-22T01:04:15.128Z,24.50
2023-04-22T01:09:19.747Z,24.60
2023-04-22T01:14:22.449Z,24.70
2023-04-22T01:19:24.722Z,24.80
2023-04-22T01:24:27.439Z,24.90
2023-04-22T01:29:29.499Z,25.00
2023-04-22T01:34:32.210Z,25.00
2023-04-22T01:39:35.003Z,25.10
2023-04-22T01:44:37.032Z,25.10
2023-04-22T01:49:39.559Z,25.20
2023-04-22T01:54:41.817Z,25.20
2023-04-22T01:59:45.674Z,25.30
2023-04-22T02:04:47.768Z,25.40
2023-04-22T02:09:50.854Z,25.40
2023-04-22T02:14:53.040Z,25.40
2023-04-22T02:19:55.254Z,25.70
2023-04-22T02:24:57.694Z,25.70
2023-04-22T02:29:59.720Z,25.70
2023-04-22T02:35:02.002Z,25.60
2023-04-22T02:40:04.498Z,25.60
2023-04-22T02:45:07.007Z,25.60
2023-04-22T02:50:10.854Z,25.60
2023-04-22T02:55:13.084Z,25.60
2023-04-22T03:00:15.929Z,25.60
2023-04-22T03:05:17.982Z,25.60
2023-04-22T03:10:20.161Z,25.60
2023-04-22T03:15:22.169Z,25.60
2023-04-22T03:20:24.171Z,25.60
2023-04-22T03:25:26.499Z,25.60
2023-04-22T03:30:28.929Z,25.60
2023-04-22T03:35:31.264Z,25.60
2023-04-22T03:40:34.046Z,25.60
2023-04-22T03:45:37.791Z,25.50
2023-04-22T03:50:41.491Z,25.50
2023-04-22T03:55:43.814Z,25.60
2023-04-22T04:00:46.870Z,25.80
2023-04-22T04:05:49.521Z,25.70
2023-04-22T04:10:51.658Z,25.70
2023-04-22T04:15:54.099Z,25.70
2023-04-22T04:20:56.678Z,25.80
2023-04-22T04:26:05.652Z,25.80
2023-04-22T04:31:09.235Z,25.90
2023-04-22T04:36:12.039Z,26.10
2023-04-22T04:41:14.578Z,26.20
2023-04-22T04:46:17.097Z,26.10
2023-04-22T04:51:20.790Z,26.20
2023-04-22T04:56:23.795Z,26.30
2023-04-22T05:01:26.498Z,26.70
2023-04-22T05:06:29.422Z,27.20
2023-04-22T05:11:32.247Z,27.50
2023-04-22T05:16:34.847Z,27.60
2023-04-22T05:21:37.753Z,27.70
2023-04-22T05:26:39.883Z,27.80
2023-04-22T05:31:42.822Z,27.90
2023-04-22T05:36:45.547Z,27.90
2023-04-22T05:41:48.024Z,28.00
2023-04-22T05:46:51.229Z,28.00
2023-04-22T05:51:54.004Z,28.10
2023-04-22T05:56:57.050Z,28.20
2023-04-22T06:01:59.965Z,28.30
2023-04-22T06:07:02.058Z,28.40
2023-04-22T06:12:04.172Z,28.60
2023-04-22T06:17:06.486Z,28.70
2023-04-22T06:22:08.553Z,28.90
2023-04-22T06:27:10.637Z,29.10
2023-04-22T06:32:12.773Z,28.90
2023-04-22T06:37:16.901Z,28.70
2023-04-22T06:42:20.164Z,28.50
2023-04-22T06:47:23.131Z,28.50
2023-04-22T06:52:27.059Z,28.40
2023-04-22T06:57:30.238Z,28.00
2023-04-22T07:02:32.339Z,27.60
2023-04-22T07:07:34.856Z,27.50
2023-04-22T07:12:36.919Z,27.40
2023-04-22T07:17:38.976Z,27.40
2023-04-22T07:22:41.048Z,27.10
2023-04-22T07:27:43.040Z,27.10
2023-04-22T07:32:47.577Z,26.90
2023-04-22T07:37:50.805Z,26.80
2023-04-22T07:42:52.796Z,26.80
2023-04-22T07:47:55.034Z,26.70
2023-04-22T07:58:01.084Z,26.20
2023-04-22T08:03:03.473Z,26.00
2023-04-22T08:08:06.387Z,25.90
2023-04-22T08:13:08.442Z,25.70
2023-04-22T08:18:10.969Z,25.30
2023-04-22T08:23:13.164Z,25.10
2023-04-22T08:28:15.428Z,24.80
2023-04-22T08:33:17.543Z,24.80
2023-04-22T08:38:19.633Z,24.70
2023-04-22T08:43:22.078Z,24.20
2023-04-22T08:48:24.159Z,23.50
2023-04-22T08:53:26.232Z,22.70
2023-04-22T08:58:28.759Z,21.80
2023-04-22T09:08:33.933Z,21.10
2023-04-22T09:13:35.981Z,20.50
2023-04-22T09:18:45.967Z,20.00
2023-04-22T09:23:48.868Z,19.50
2023-04-22T09:28:52.064Z,18.90
2023-04-22T09:33:56.220Z,18.60
2023-04-22T09:38:59.517Z,18.00
2023-04-22T09:44:02.283Z,18.00
2023-04-22T09:49:04.434Z,18.20
2023-04-22T09:54:08.816Z,18.10
2023-04-22T09:59:11.100Z,18.20
2023-04-22T10:04:15.414Z,18.00
2023-04-22T10:09:18.877Z,17.50
2023-04-22T10:14:21.857Z,17.10
2023-04-22T10:19:24.904Z,16.40
2023-04-22T10:24:27.807Z,15.90
2023-04-22T10:29:35.964Z,15.80
2023-04-22T10:34:39.082Z,15.60
2023-04-22T10:39:42.821Z,15.50
2023-04-22T10:44:46.709Z,15.30
2023-04-22T10:49:49.310Z,14.10
2023-04-22T10:55:00.955Z,13.80
2023-04-22T11:00:21.675Z,12.50
2023-04-22T11:05:26.714Z,11.70
2023-04-22T11:10:33.162Z,11.30
2023-04-22T11:15:36.727Z,10.40
2023-04-22T11:20:38.898Z,9.20
2023-04-22T11:25:40.991Z,8.10
2023-04-22T11:30:43.002Z,7.40
2023-04-22T11:35:45.103Z,7.10
2023-04-22T11:40:47.679Z,6.80
2023-04-22T11:45:50.213Z,5.90
2023-04-22T11:51:07.340Z,5.20
2023-04-22T11:56:09.440Z,4.00
2023-04-22T12:01:13.159Z,3.00
2023-04-22T12:06:16.325Z,2.90
2023-04-22T12:11:18.368Z,2.20
2023-04-22T12:16:20.602Z,2.00
2023-04-22T12:21:24.567Z,1.90
2023-04-22T12:26:27.757Z,1.90
2023-04-22T12:31:30.132Z,2.10
2023-04-22T12:36:32.564Z,2.40
2023-04-22T12:41:34.648Z,2.50
2023-04-22T12:46:36.719Z,2.20
2023-04-22T12:51:38.697Z,2.30
2023-04-22T12:56:40.851Z,2.10
2023-04-22T13:01:42.891Z,2.50
2023-04-22T13:11:49.243Z,2.50
2023-04-22T13:16:51.742Z,2.60
2023-04-22T13:21:53.752Z,2.80
2023-04-22T13:26:56.236Z,2.90
2023-04-22T13:31:58.445Z,2.60
2023-04-22T13:37:00.624Z,2.50
2023-04-22T13:42:03.988Z,2.50
2023-04-22T13:47:06.121Z,2.60
2023-04-22T13:52:08.133Z,2.60
2023-04-22T13:57:10.413Z,2.90
2023-04-22T14:02:12.727Z,2.90
2023-04-22T14:07:14.781Z,2.70
2023-04-22T14:12:16.987Z,2.70
2023-04-22T14:17:20.598Z,2.80
2023-04-22T14:22:22.616Z,3.00
2023-04-22T14:27:25.814Z,2.90
2023-04-22T14:32:28.022Z,3.20
2023-04-22T14:37:31.933Z,3.40
2023-04-22T14:42:34.134Z,3.40
2023-04-22T14:47:36.164Z,3.60
2023-04-22T14:52:38.313Z,3.70
2023-04-22T14:57:40.270Z,3.80
2023-04-22T15:02:42.739Z,3.80
2023-04-22T15:07:44.896Z,3.60
2023-04-22T15:12:47.020Z,3.40
2023-04-22T15:17:49.626Z,3.40
2023-04-22T15:22:52.292Z,3.20
2023-04-22T15:27:56.506Z,3.30
2023-04-22T15:32:58.645Z,3.50
2023-04-22T15:38:02.779Z,3.60
2023-04-22T15:43:04.902Z,3.60
2023-04-22T15:48:06.978Z,3.30
2023-04-22T15:53:09.066Z,3.30
2023-04-22T15:58:11.098Z,2.80
2023-04-22T16:03:13.239Z,2.40
2023-04-22T16:08:16.049Z,2.10
2023-04-22T16:13:18.990Z,1.80
2023-04-22T16:18:20.999Z,1.90
2023-04-22T16:23:22.999Z,1.90
2023-04-22T16:28:25.177Z,2.00
2023-04-22T16:33:27.972Z,2.20
2023-04-22T16:38:30.246Z,2.20
2023-04-22T16:43:32.268Z,2.10
2023-04-22T16:48:34.380Z,2.20
2023-04-22T16:53:36.594Z,2.30
2023-04-22T16:58:38.775Z,2.20
2023-04-22T17:03:41.592Z,2.60
2023-04-22T17:08:43.804Z,2.80
2023-04-22T17:13:45.758Z,2.90
2023-04-22T17:18:47.834Z,3.20
2023-04-22T17:23:50.312Z,3.50
2023-04-22T17:28:52.391Z,3.90
2023-04-22T17:33:54.922Z,4.20
2023-04-22T17:38:56.969Z,4.90
2023-04-22T17:43:59.416Z,5.30
2023-04-22T17:49:02.060Z,5.80
2023-04-22T17:54:05.159Z,6.20
2023-04-22T17:59:07.301Z,6.30
2023-04-22T18:09:11.776Z,6.90
2023-04-22T18:14:13.946Z,7.10
2023-04-22T18:19:16.262Z,7.50
2023-04-22T18:24:18.251Z,8.10
2023-04-22T18:29:20.712Z,8.20
2023-04-22T18:34:22.959Z,8.70
2023-04-22T18:39:25.266Z,9.00
2023-04-22T18:44:27.342Z,8.90
2023-04-22T18:49:33.498Z,9.00
2023-04-22T18:54:36.068Z,9.20
2023-04-22T18:59:38.352Z,9.70
2023-04-22T19:04:40.790Z,9.60
2023-04-22T19:09:43.076Z,9.90
2023-04-22T19:19:49.744Z,10.30
2023-04-22T19:24:51.886Z,10.50
2023-04-22T19:29:53.973Z,10.80
2023-04-22T19:34:56.032Z,10.90
2023-04-22T19:39:58.291Z,11.00
2023-04-22T19:45:00.661Z,11.30
2023-04-22T19:50:03.782Z,11.50
2023-04-22T19:55:09.929Z,11.80
2023-04-22T20:00:12.429Z,12.20
2023-04-22T20:05:14.283Z,12.60
2023-04-22T20:10:16.716Z,13.10
2023-04-22T20:15:18.836Z,13.90
2023-04-22T20:20:21.643Z,14.20
2023-04-22T20:25:23.699Z,14.20
2023-04-22T20:30:25.848Z,14.60
2023-04-22T20:40:53.383Z,15.10
2023-04-22T20:45:55.495Z,15.60
2023-04-22T20:50:57.604Z,15.80
2023-04-22T20:55:59.625Z,16.00
2023-04-22T21:01:01.767Z,16.00
2023-04-22T21:06:03.944Z,16.10
2023-04-22T21:11:06.467Z,16.40
2023-04-22T21:16:08.902Z,16.70
2023-04-22T21:21:12.397Z,16.80
2023-04-22T21:26:14.940Z,16.90
2023-04-22T21:31:17.248Z,17.40
2023-04-22T21:36:22.543Z,17.70
2023-04-22T21:41:24.635Z,17.90
2023-04-22T21:46:26.733Z,18.10
2023-04-22T21:51:28.810Z,18.20
2023-04-22T21:56:33.430Z,18.40
2023-04-22T22:01:35.519Z,18.50
2023-04-22T22:06:37.571Z,18.80
2023-04-22T22:11:39.652Z,18.90
2023-04-22T22:16:41.842Z,19.10
2023-04-22T22:21:43.948Z,19.60
2023-04-22T22:26:45.966Z,19.60
2023-04-22T22:31:47.997Z,19.80
2023-04-22T22:36:50.641Z,20.10
2023-04-22T22:41:52.828Z,20.30
2023-04-22T22:46:55.040Z,20.60
2023-04-22T22:51:57.035Z,20.90
2023-04-22T22:56:59.089Z,21.10
2023-04-22T23:02:01.180Z,21.40
2023-04-22T23:12:05.667Z,21.90
2023-04-22T23:17:07.712Z,21.90
2023-04-22T23:22:13.335Z,22.10
2023-04-22T23:27:16.638Z,22.40
2023-04-22T23:32:19.376Z,22.40
2023-04-22T23:37:23.352Z,22.70
2023-04-22T23:42:26.838Z,22.60
2023-04-22T23:47:29.069Z,22.60
2023-04-22T23:52:31.038Z,22.90
2023-04-22T23:57:33.250Z,23.00
